Time;durP1;ratioP1;P1;durP2;ratioP2;P2;SDS_P1;SDS_P2;PMS_P1;PMS_P2;Temp;Humidity;BMP_temperature;BMP_pressure;BME280_temperature;BME280_humidity;BME280_pressure;Samples;Min_cycle;Max_cycle;Signal;HPM_P1;HPM_P2
2023/05/22 00:01:48;;;;;;;13.55;10.10;;;;;;;20.53;57.05;99920.13;10142681;29;20056;-64
2023/05/22 00:06:50;;;;;;;15.20;10.30;;;;;;;20.53;57.34;99911.94;10141869;29;20135;-64
2023/05/22 00:11:52;;;;;;;14.25;10.75;;;;;;;20.53;57.26;99905.66;10134778;29;20048;-65
2023/05/22 00:16:55;;;;;;;16.25;10.80;;;;;;;20.53;57.16;99911.13;10140085;29;20056;-63
2023/05/22 00:21:56;;;;;;;19.05;10.40;;;;;;;20.44;57.38;99904.44;10137985;29;20092;-64
2023/05/22 00:26:58;;;;;;;14.52;10.65;;;;;;;20.36;57.47;99900.25;10134020;29;20122;-63
2023/05/22 00:31:59;;;;;;;13.45;10.60;;;;;;;20.30;57.67;99895.78;10135795;29;20048;-65
2023/05/22 00:37:01;;;;;;;13.25;10.98;;;;;;;20.25;57.75;99896.53;10139690;29;20049;-65
2023/05/22 00:42:02;;;;;;;18.55;10.68;;;;;;;20.19;57.57;99890.19;10137256;29;20433;-63
2023/05/22 00:47:04;;;;;;;16.65;10.63;;;;;;;20.12;57.62;99894.16;10134961;29;20595;-64
2023/05/22 00:52:06;;;;;;;14.45;10.13;;;;;;;20.09;58.07;99892.78;10136321;29;20055;-63
2023/05/22 00:57:08;;;;;;;11.98;10.63;;;;;;;20.03;58.15;99898.41;10137786;29;20044;-64
2023/05/22 01:02:09;;;;;;;15.40;10.25;;;;;;;19.93;58.31;99902.63;10139078;29;20053;-64
2023/05/22 01:07:11;;;;;;;13.90;10.77;;;;;;;19.88;58.43;99894.34;10147878;29;20495;-63
2023/05/22 01:12:41;;;;;;;13.18;9.15;;;;;;;19.77;58.45;99887.91;10147357;29;20124;-65
2023/05/22 01:17:51;;;;;;;14.90;9.43;;;;;;;19.72;58.59;99904.19;10145354;29;20052;-64
2023/05/22 01:23:13;;;;;;;12.38;10.27;;;;;;;19.64;58.65;99901.03;10143966;29;20432;-65
2023/05/22 01:28:43;;;;;;;12.60;9.68;;;;;;;19.61;58.76;99899.63;10145762;29;20131;-64
2023/05/22 01:33:50;;;;;;;12.05;9.23;;;;;;;19.55;58.95;99901.44;10147654;29;20052;-65
2023/05/22 01:38:53;;;;;;;14.73;10.13;;;;;;;19.54;58.86;99910.66;10126621;29;20139;-64
2023/05/22 01:43:55;;;;;;;14.02;9.35;;;;;;;19.38;59.10;99904.13;10145224;29;20528;-65
2023/05/22 01:48:57;;;;;;;15.20;10.40;;;;;;;19.32;59.22;99901.56;10142155;29;20052;-66
2023/05/22 01:54:13;;;;;;;12.82;9.55;;;;;;;19.32;59.31;99901.56;10145022;29;20051;-64
2023/05/22 01:59:38;;;;;;;13.32;10.68;;;;;;;19.31;59.18;99900.75;10145529;29;20055;-64
2023/05/22 02:04:45;;;;;;;13.93;10.88;;;;;;;19.27;59.31;99899.53;10143341;29;20072;-63
2023/05/22 02:09:48;;;;;;;13.25;10.73;;;;;;;19.15;59.64;99899.59;10140671;29;20056;-64
2023/05/22 02:14:50;;;;;;;14.55;10.98;;;;;;;19.13;59.70;99904.47;10142023;29;20067;-65
2023/05/22 02:19:51;;;;;;;16.95;13.65;;;;;;;19.11;59.64;99906.59;10142931;29;20048;-64
2023/05/22 02:24:52;;;;;;;13.60;9.77;;;;;;;19.04;59.69;99903.22;10145207;29;20056;-64
2023/05/22 02:29:54;;;;;;;15.30;9.95;;;;;;;19.00;59.76;99902.88;10144797;29;20056;-65
2023/05/22 02:34:57;;;;;;;14.98;10.32;;;;;;;18.94;60.21;99900.31;10141837;29;20103;-64
2023/05/22 02:39:58;;;;;;;14.45;11.35;;;;;;;18.93;59.89;99895.91;10140537;29;20056;-64
2023/05/22 02:45:01;;;;;;;13.30;9.68;;;;;;;18.91;60.05;99904.31;10145043;29;20041;-64
2023/05/22 02:50:02;;;;;;;17.05;10.75;;;;;;;18.85;60.16;99897.13;10141345;29;20052;-63
2023/05/22 02:55:06;;;;;;;14.82;11.40;;;;;;;18.81;60.26;99904.94;10141360;29;20047;-62
2023/05/22 03:00:10;;;;;;;20.55;12.77;;;;;;;18.63;60.83;99905.09;10126878;29;20052;-63
2023/05/22 03:05:16;;;;;;;15.75;10.85;;;;;;;18.50;61.26;99908.06;10141934;29;20527;-67
2023/05/22 03:10:17;;;;;;;18.25;12.45;;;;;;;18.38;61.70;99908.06;10139558;29;20594;-65
2023/05/22 03:15:19;;;;;;;17.80;11.52;;;;;;;18.14;62.21;99905.38;10143759;29;20052;-65
2023/05/22 03:20:20;;;;;;;17.42;12.30;;;;;;;18.05;62.62;99909.53;10139313;29;20055;-64
2023/05/22 03:25:22;;;;;;;16.52;11.38;;;;;;;18.08;62.61;99905.50;10139926;29;20060;-64
2023/05/22 03:30:23;;;;;;;14.52;10.90;;;;;;;18.12;62.60;99906.69;10141411;29;20060;-64
2023/05/22 03:35:25;;;;;;;15.98;12.05;;;;;;;18.19;62.37;99899.22;10147994;29;20072;-66
2023/05/22 03:40:26;;;;;;;15.50;11.73;;;;;;;18.21;62.67;99914.25;10145772;29;20059;-63
2023/05/22 03:45:29;;;;;;;21.70;12.15;;;;;;;18.24;62.51;99919.19;10146762;29;20071;-64
2023/05/22 03:50:30;;;;;;;18.70;12.18;;;;;;;18.23;62.65;99912.13;10141337;29;20052;-64
2023/05/22 03:55:32;;;;;;;16.00;11.55;;;;;;;18.19;62.79;99910.13;10134093;29;20060;-63
2023/05/22 04:00:33;;;;;;;19.05;12.05;;;;;;;18.13;62.95;99908.34;10147516;29;20055;-66
2023/05/22 04:05:35;;;;;;;20.95;13.25;;;;;;;18.13;63.27;99911.06;10142936;29;20384;-64
2023/05/22 04:10:37;;;;;;;16.30;11.93;;;;;;;18.03;63.35;99907.03;10147966;29;20485;-63
2023/05/22 04:15:45;;;;;;;17.00;10.93;;;;;;;18.08;63.43;99913.66;10145809;29;20566;-67
2023/05/22 04:20:47;;;;;;;20.80;11.75;;;;;;;18.22;63.11;99909.63;10139963;29;20100;-66
2023/05/22 04:25:49;;;;;;;17.00;11.73;;;;;;;18.30;63.04;99911.16;10143431;29;20060;-65
2023/05/22 04:30:51;;;;;;;19.58;12.45;;;;;;;18.26;63.09;99915.44;10140584;29;20044;-66
2023/05/22 04:35:53;;;;;;;17.77;11.10;;;;;;;18.31;63.04;99913.66;10142749;29;20052;-65
2023/05/22 04:40:55;;;;;;;17.48;11.70;;;;;;;18.27;63.43;99919.81;10138379;29;20061;-66
2023/05/22 04:45:56;;;;;;;16.55;12.02;;;;;;;18.39;63.13;99926.91;10151793;29;20542;-64
2023/05/22 04:50:58;;;;;;;15.63;11.30;;;;;;;18.46;63.11;99934.09;10151086;29;20407;-65
2023/05/22 04:55:59;;;;;;;17.02;11.75;;;;;;;18.47;63.19;99935.78;10153744;29;20064;-65
2023/05/22 05:01:02;;;;;;;15.52;12.25;;;;;;;18.55;63.15;99936.22;10138505;29;20048;-64
2023/05/22 05:06:03;;;;;;;18.88;12.60;;;;;;;18.58;63.29;99933.03;10149492;29;20112;-64
2023/05/22 05:11:05;;;;;;;15.80;12.80;;;;;;;18.62;63.30;99938.81;10148174;29;20055;-65
2023/05/22 05:16:07;;;;;;;17.30;12.85;;;;;;;18.64;63.62;99942.13;10169704;29;20056;-62
2023/05/22 05:21:08;;;;;;;17.33;13.20;;;;;;;18.74;63.37;99942.34;10131772;29;20407;-63
2023/05/22 05:26:10;;;;;;;16.42;12.57;;;;;;;18.76;63.58;99945.66;10122667;29;20064;-66
2023/05/22 05:31:11;;;;;;;16.17;12.52;;;;;;;18.98;63.26;99945.06;10146887;29;20044;-62
2023/05/22 05:36:13;;;;;;;17.33;11.55;;;;;;;19.15;62.98;99945.94;10147408;29;20143;-64
2023/05/22 05:41:14;;;;;;;16.63;12.30;;;;;;;19.30;62.90;99947.31;10147783;29;20142;-66
2023/05/22 05:46:16;;;;;;;15.90;11.65;;;;;;;19.49;62.69;99940.59;10146392;29;20499;-62
2023/05/22 05:51:20;;;;;;;14.88;11.27;;;;;;;19.68;62.37;99952.09;10149458;29;20065;-64
2023/05/22 05:56:21;;;;;;;23.35;12.02;;;;;;;19.84;62.33;99955.94;10153346;29;20052;-66
2023/05/22 06:01:25;;;;;;;14.95;11.13;;;;;;;19.90;62.34;99954.13;10127839;29;20111;-63
2023/05/22 06:06:29;;;;;;;17.00;10.80;;;;;;;20.05;61.96;99968.03;10151727;29;20084;-65
2023/05/22 06:11:32;;;;;;;14.57;11.13;;;;;;;20.10;62.38;99972.72;10144930;29;20052;-63
2023/05/22 06:16:33;;;;;;;18.17;11.85;;;;;;;20.25;62.13;99963.97;10146699;29;20132;-66
2023/05/22 06:21:35;;;;;;;14.52;10.95;;;;;;;20.43;61.44;99966.41;10157571;29;20044;-61
2023/05/22 06:26:36;;;;;;;16.88;11.45;;;;;;;20.59;61.43;99962.84;10152396;29;20063;-61
2023/05/22 06:31:38;;;;;;;12.85;11.07;;;;;;;20.82;61.50;99971.91;10146035;29;20083;-61
2023/05/22 06:36:41;;;;;;;16.98;10.85;;;;;;;21.05;60.78;99970.00;10151305;29;20092;-60
2023/05/22 06:41:42;;;;;;;14.98;9.05;;;;;;;21.15;60.52;99964.69;10144138;29;20147;-62
2023/05/22 06:46:44;;;;;;;10.70;8.48;;;;;;;21.32;59.79;99968.13;10136985;29;20055;-62
2023/05/22 06:51:45;;;;;;;11.70;9.25;;;;;;;21.60;59.42;99969.00;10137908;29;20139;-60
2023/05/22 06:56:47;;;;;;;11.77;8.48;;;;;;;21.94;58.84;99969.59;10142018;29;20514;-60
2023/05/22 07:01:48;;;;;;;13.60;8.80;;;;;;;22.24;58.28;99970.09;10135919;29;20057;-62
2023/05/22 07:06:50;;;;;;;14.82;8.38;;;;;;;22.50;57.49;99971.13;10143777;29;20049;-60
2023/05/22 07:11:51;;;;;;;9.25;8.20;;;;;;;22.74;57.13;99977.00;10142836;29;20048;-59
2023/05/22 07:16:53;;;;;;;11.88;7.75;;;;;;;23.05;56.05;99977.19;10142671;29;20067;-64
2023/05/22 07:21:54;;;;;;;13.25;8.63;;;;;;;23.19;55.18;99972.84;10141093;29;20135;-61
2023/05/22 07:30:36;;;;;;;9.93;8.55;;;;;;;23.34;54.84;99977.56;10436738;27;20411;-61
2023/05/22 07:35:38;;;;;;;10.90;8.48;;;;;;;23.52;54.08;99977.06;10412783;28;20493;-60
2023/05/22 07:40:39;;;;;;;8.65;7.47;;;;;;;23.64;53.52;99981.50;10419935;28;20404;-60
2023/05/22 07:45:42;;;;;;;8.50;7.70;;;;;;;23.72;53.01;99969.97;10412743;28;20516;-60
2023/05/22 07:50:44;;;;;;;10.57;7.20;;;;;;;23.95;51.37;99972.22;10402418;28;20044;-60
2023/05/22 07:55:45;;;;;;;8.40;7.40;;;;;;;24.11;50.82;99973.03;10407453;28;20056;-61
2023/05/22 08:00:47;;;;;;;7.60;6.90;;;;;;;24.34;49.33;99977.13;10412090;28;20061;-61
2023/05/22 08:05:48;;;;;;;8.93;7.70;;;;;;;24.61;49.80;99976.00;10416018;28;20045;-61
2023/05/22 08:10:50;;;;;;;9.52;7.75;;;;;;;24.71;49.14;99970.47;10416786;28;20049;-60
2023/05/22 08:16:04;;;;;;;9.77;7.35;;;;;;;24.91;48.57;99975.09;10411460;28;20118;-62
2023/05/22 08:21:06;;;;;;;11.57;7.32;;;;;;;25.08;48.53;99980.25;10414524;28;20060;-61
2023/05/22 08:26:08;;;;;;;11.77;7.43;;;;;;;25.21;48.47;99973.31;10411305;28;20127;-61
2023/05/22 08:31:10;;;;;;;11.88;7.60;;;;;;;25.39;47.82;99976.53;10401226;28;20514;-63
2023/05/22 08:36:12;;;;;;;9.80;7.63;;;;;;;25.59;46.71;99972.84;10412283;28;20050;-61
2023/05/22 08:41:14;;;;;;;10.38;7.78;;;;;;;25.61;46.46;99960.47;10388708;28;20041;-63
2023/05/22 08:46:18;;;;;;;14.52;7.78;;;;;;;25.66;46.68;99963.16;10381260;28;20135;-62
2023/05/22 08:51:21;;;;;;;10.05;7.30;;;;;;;25.86;46.30;99962.19;10386154;28;20047;-61
2023/05/22 08:56:22;;;;;;;11.77;7.60;;;;;;;25.97;45.64;99968.47;10382555;28;20033;-61
2023/05/22 09:01:31;;;;;;;9.07;7.75;;;;;;;26.04;45.54;99966.19;10383651;28;20069;-60
2023/05/22 09:06:32;;;;;;;;;;;;;;;26.07;46.24;99962.88;10382699;28;20052;-65
2023/05/22 09:11:33;;;;;;;9.73;7.90;;;;;;;26.44;44.56;99955.06;10386102;28;19925;-60
2023/05/22 09:16:46;;;;;;;9.85;7.38;;;;;;;26.71;44.64;99955.34;10377870;28;20504;-62
2023/05/22 09:21:49;;;;;;;11.35;8.15;;;;;;;26.85;44.50;99958.22;10382973;28;20128;-60
2023/05/22 09:26:51;;;;;;;11.13;8.60;;;;;;;27.25;43.80;99958.03;10373684;28;20045;-61
2023/05/22 09:31:53;;;;;;;12.18;9.15;;;;;;;27.24;44.07;99951.69;10368648;28;20045;-62
2023/05/22 09:37:02;;;;;;;10.27;7.90;;;;;;;27.56;43.09;99952.88;10372947;28;20750;-60
2023/05/22 09:42:03;;;;;;;9.77;8.40;;;;;;;27.78;43.11;99945.94;10370370;28;20075;-62
2023/05/22 09:47:06;;;;;;;10.52;7.72;;;;;;;27.91;42.19;99939.66;10373615;28;20042;-63
2023/05/22 09:52:09;;;;;;;9.50;7.47;;;;;;;28.05;42.25;99942.47;10372270;28;20037;-61
2023/05/22 09:57:16;;;;;;;9.68;7.45;;;;;;;28.37;41.69;99935.25;10375389;28;20049;-62
2023/05/22 10:02:19;;;;;;;7.97;7.10;;;;;;;28.66;40.79;99944.13;10378771;28;20099;-60
2023/05/22 10:07:23;;;;;;;12.82;6.93;;;;;;;28.86;39.51;99942.88;10377073;28;20061;-62
2023/05/22 10:12:26;;;;;;;7.93;7.13;;;;;;;29.01;39.03;99938.97;10380029;28;20042;-62
2023/05/22 10:17:28;;;;;;;9.60;7.05;;;;;;;29.09;38.85;99940.22;10381004;28;20045;-62
2023/05/22 10:22:31;;;;;;;9.48;6.80;;;;;;;29.40;38.24;99932.03;10372719;28;20048;-63
2023/05/22 10:27:33;;;;;;;9.70;6.80;;;;;;;29.72;37.77;99926.63;10379123;28;20049;-62
2023/05/22 10:32:41;;;;;;;9.43;6.47;;;;;;;29.99;37.10;99920.13;10368047;28;20511;-62
2023/05/22 10:38:19;;;;;;;9.55;6.63;;;;;;;30.08;37.08;99917.41;10380011;28;20066;-63
2023/05/22 10:43:21;;;;;;;10.55;6.28;;;;;;;30.24;36.39;99902.00;10371110;28;20030;-60
2023/05/22 10:48:24;;;;;;;10.15;6.45;;;;;;;30.50;35.39;99902.13;10373701;28;20049;-62
2023/05/22 10:53:30;;;;;;;6.82;5.53;;;;;;;30.68;34.32;99900.22;10374278;28;20048;-63
2023/05/22 10:58:35;;;;;;;6.28;5.65;;;;;;;30.92;33.94;99901.78;10374522;28;20038;-64
2023/05/22 11:04:00;;;;;;;7.82;5.05;;;;;;;31.25;33.55;99898.56;10368543;28;20089;-61
2023/05/22 11:09:18;;;;;;;8.13;4.80;;;;;;;31.52;32.84;99894.69;10374711;28;20420;-62
2023/05/22 11:14:20;;;;;;;5.35;4.88;;;;;;;31.78;31.99;99903.78;10367064;28;20069;-62
2023/05/22 11:19:22;;;;;;;9.48;5.57;;;;;;;31.56;31.61;99896.47;10373529;28;20049;-61
2023/05/22 11:24:24;;;;;;;6.40;5.07;;;;;;;31.28;32.04;99892.34;10369104;28;20148;-63
2023/05/22 11:29:28;;;;;;;6.28;4.97;;;;;;;31.49;31.82;99893.34;10368623;28;20048;-62
2023/05/22 11:34:29;;;;;;;4.97;4.47;;;;;;;31.46;31.67;99887.63;10376526;28;20132;-64
2023/05/22 11:39:31;;;;;;;7.47;6.07;;;;;;;31.72;31.99;99874.53;10396883;28;20579;-62
2023/05/22 11:44:33;;;;;;;5.57;4.82;;;;;;;32.15;31.51;99870.03;10399146;28;20254;-62
2023/05/22 11:49:34;;;;;;;6.28;4.50;;;;;;;32.08;30.66;99859.41;10376927;28;20052;-62
2023/05/22 11:54:36;;;;;;;7.38;4.38;;;;;;;32.33;30.27;99866.03;10372071;28;20435;-62
2023/05/22 11:59:39;;;;;;;5.60;4.15;;;;;;;32.70;28.99;99859.97;10378357;28;20037;-62
2023/05/22 12:04:41;;;;;;;6.13;4.32;;;;;;;32.82;28.81;99850.88;10373432;28;21111;-63
2023/05/22 12:09:42;;;;;;;5.57;3.75;;;;;;;33.19;28.35;99847.19;10371938;28;20417;-64
2023/05/22 12:14:44;;;;;;;5.47;4.47;;;;;;;33.58;28.46;99835.84;10382561;28;20151;-63
2023/05/22 12:19:46;;;;;;;5.63;4.78;;;;;;;33.89;27.80;99829.81;10378861;28;20041;-63
2023/05/22 12:24:51;;;;;;;5.60;5.10;;;;;;;34.16;27.32;99831.16;10375316;28;20046;-63
2023/05/22 12:29:55;;;;;;;6.77;4.67;;;;;;;34.35;26.82;99826.94;10375508;28;20070;-63
2023/05/22 12:34:57;;;;;;;7.43;5.00;;;;;;;34.50;27.19;99825.41;10381272;28;21041;-64
2023/05/22 12:40:02;;;;;;;6.97;4.85;;;;;;;34.10;27.24;99824.09;10387941;28;20057;-63
2023/05/22 12:45:04;;;;;;;6.07;4.78;;;;;;;34.74;27.26;99819.84;10383529;28;20492;-63
2023/05/22 12:50:07;;;;;;;7.20;4.68;;;;;;;35.23;26.51;99813.31;10380807;28;20052;-61
2023/05/22 12:55:09;;;;;;;7.22;4.90;;;;;;;35.43;26.10;99807.84;10383795;28;20140;-63
2023/05/22 13:00:11;;;;;;;10.98;4.88;;;;;;;35.40;25.95;99801.00;10378531;28;20050;-63
2023/05/22 13:05:13;;;;;;;6.85;4.93;;;;;;;35.32;25.93;99811.16;10386099;28;20136;-64
2023/05/22 13:10:14;;;;;;;5.38;4.85;;;;;;;35.45;26.10;99806.34;10385634;28;20049;-63
2023/05/22 13:15:17;;;;;;;5.32;4.80;;;;;;;35.74;25.44;99798.72;10386386;28;20049;-64
2023/05/22 13:20:18;;;;;;;5.68;4.57;;;;;;;35.37;25.98;99804.53;10381796;28;20046;-63
2023/05/22 13:25:20;;;;;;;5.25;4.75;;;;;;;35.87;25.84;99803.06;10388327;28;20064;-63
2023/05/22 13:30:21;;;;;;;9.23;5.22;;;;;;;36.33;25.18;99811.00;10384619;28;20041;-62
2023/05/22 13:35:23;;;;;;;7.75;4.35;;;;;;;36.78;24.56;99794.88;10385325;28;20041;-64
2023/05/22 13:40:24;;;;;;;4.75;4.35;;;;;;;37.14;24.16;99802.03;10383893;28;20041;-63
2023/05/22 13:45:26;;;;;;;7.35;4.78;;;;;;;37.56;24.07;99797.63;10379195;28;20041;-64
2023/05/22 13:50:28;;;;;;;7.10;4.13;;;;;;;38.11;23.27;99791.81;10381169;28;20046;-64
2023/05/22 13:55:29;;;;;;;5.07;4.45;;;;;;;38.68;23.26;99787.06;10378715;28;20049;-65
2023/05/22 14:00:31;;;;;;;4.95;4.47;;;;;;;39.63;21.36;99779.38;10382189;28;20038;-64
2023/05/22 14:05:32;;;;;;;5.18;4.70;;;;;;;40.39;20.82;99778.03;10379237;28;20045;-64
2023/05/22 14:10:34;;;;;;;6.03;4.55;;;;;;;40.51;20.57;99776.91;10374283;28;20708;-63
2023/05/22 14:15:36;;;;;;;7.07;5.13;;;;;;;39.35;21.80;99774.25;10373307;28;20147;-63
2023/05/22 14:20:37;;;;;;;4.88;3.85;;;;;;;38.68;22.50;99762.59;10378028;28;20128;-63
2023/05/22 14:25:43;;;;;;;8.40;4.30;;;;;;;38.07;22.72;99753.25;10371090;28;20042;-65
2023/05/22 14:30:44;;;;;;;5.85;4.75;;;;;;;38.08;23.46;99749.28;10373187;28;20034;-65
2023/05/22 14:35:47;;;;;;;7.78;4.40;;;;;;;37.83;23.20;99746.03;10372667;28;20099;-65
2023/05/22 14:40:50;;;;;;;6.75;4.15;;;;;;;37.43;22.73;99764.16;10379832;28;20049;-65
2023/05/22 14:45:51;;;;;;;4.43;4.03;;;;;;;37.02;22.97;99768.53;10376085;28;20050;-65
2023/05/22 14:50:53;;;;;;;6.28;5.18;;;;;;;36.05;25.12;99769.94;10378907;28;20084;-66
2023/05/22 14:55:54;;;;;;;7.68;5.38;;;;;;;35.37;26.54;99768.19;10372585;28;20144;-66
2023/05/22 15:00:56;;;;;;;5.20;4.70;;;;;;;35.63;26.17;99764.88;10374939;28;20046;-66
2023/05/22 15:05:57;;;;;;;6.75;4.40;;;;;;;34.98;27.13;99772.66;10379030;28;20061;-67
2023/05/22 15:10:58;;;;;;;5.07;3.58;;;;;;;34.12;27.49;99781.91;10366200;28;20046;-66
2023/05/22 15:16:00;;;;;;;5.72;3.65;;;;;;;32.36;29.33;99793.00;10370593;28;20053;-66
2023/05/22 15:21:01;;;;;;;5.85;2.92;;;;;;;32.12;29.35;99778.94;10376247;28;20652;-65
2023/05/22 15:26:03;;;;;;;6.97;3.47;;;;;;;31.47;31.05;99778.16;10374891;28;20129;-64
2023/05/22 15:31:04;;;;;;;6.00;4.82;;;;;;;30.79;33.57;99781.44;10374585;28;20408;-64
2023/05/22 15:36:06;;;;;;;7.60;5.40;;;;;;;30.37;35.72;99775.47;10374367;28;20060;-66
2023/05/22 15:41:07;;;;;;;6.78;4.32;;;;;;;30.16;35.58;99748.31;10372169;28;20108;-64
2023/05/22 15:46:11;;;;;;;3.72;3.33;;;;;;;29.69;35.23;99747.16;10375074;28;20046;-64
2023/05/22 15:51:12;;;;;;;4.28;2.42;;;;;;;29.46;35.17;99744.41;10382742;28;20136;-64
2023/05/22 15:56:14;;;;;;;3.22;2.47;;;;;;;29.71;34.09;99751.22;10382560;28;20046;-64
2023/05/22 16:01:15;;;;;;;5.55;2.00;;;;;;;30.06;33.64;99759.72;10381290;28;20049;-65
2023/05/22 16:06:16;;;;;;;4.57;2.05;;;;;;;30.19;32.61;99752.41;10383075;28;20041;-65
2023/05/22 16:11:18;;;;;;;8.05;3.38;;;;;;;30.33;32.69;99760.63;10380842;28;20519;-64
2023/05/22 16:16:20;;;;;;;5.82;4.60;;;;;;;30.40;33.02;99777.59;10385182;28;20038;-66
2023/05/22 16:21:21;;;;;;;5.43;4.63;;;;;;;30.25;34.42;99781.59;10389186;28;20054;-61
2023/05/22 16:26:22;;;;;;;5.68;3.50;;;;;;;30.31;33.64;99785.88;10378951;28;20053;-62
2023/05/22 16:31:24;;;;;;;4.45;3.88;;;;;;;30.44;33.93;99798.00;10385251;28;20450;-60
2023/05/22 16:36:26;;;;;;;6.05;4.10;;;;;;;30.81;32.91;99821.56;10383736;28;20064;-61
2023/05/22 16:41:27;;;;;;;6.60;4.88;;;;;;;30.98;32.81;99826.34;10383491;28;20907;-61
2023/05/22 16:46:29;;;;;;;5.90;4.00;;;;;;;30.97;32.81;99826.69;10382144;28;20068;-61
2023/05/22 16:51:30;;;;;;;4.40;3.70;;;;;;;30.68;32.82;99839.19;10378514;28;20698;-60
2023/05/22 16:56:32;;;;;;;4.72;3.55;;;;;;;30.04;33.05;99842.38;10387642;28;20053;-60
2023/05/22 17:01:34;;;;;;;11.00;4.38;;;;;;;29.72;33.42;99833.25;10391434;28;20077;-69
2023/05/22 17:06:36;;;;;;;4.93;3.10;;;;;;;29.28;33.82;99815.47;10383111;28;20046;-67
2023/05/22 17:11:37;;;;;;;5.90;3.40;;;;;;;29.23;34.36;99808.13;10379295;28;20132;-66
2023/05/22 17:16:39;;;;;;;8.10;3.28;;;;;;;28.98;36.38;99814.25;10375362;28;20053;-65
2023/05/22 17:21:42;;;;;;;5.35;3.08;;;;;;;27.73;39.63;99836.34;10372320;28;20044;-66
2023/05/22 17:26:43;;;;;;;7.53;3.42;;;;;;;28.03;39.04;99862.63;10376895;28;20145;-66
2023/05/22 17:31:45;;;;;;;7.07;3.30;;;;;;;27.03;40.68;99884.88;10379303;28;20688;-65
2023/05/22 17:36:46;;;;;;;5.53;3.47;;;;;;;26.55;40.80;99884.94;10382608;28;20382;-65
2023/05/22 17:41:48;;;;;;;5.53;3.63;;;;;;;26.80;39.42;99896.81;10388831;28;20049;-65
2023/05/22 17:46:49;;;;;;;4.22;3.63;;;;;;;26.77;40.19;99928.53;10368399;28;20055;-65
2023/05/22 17:51:51;;;;;;;7.85;3.17;;;;;;;26.49;40.07;99932.97;10366799;28;20072;-65
2023/05/22 17:56:53;;;;;;;5.55;3.70;;;;;;;26.09;39.62;99948.81;10381613;28;20052;-65
2023/05/22 18:01:55;;;;;;;8.18;4.00;;;;;;;26.38;40.57;99961.75;10380415;28;20046;-65
2023/05/22 18:06:56;;;;;;;7.85;4.90;;;;;;;26.46;41.44;99961.13;10371287;28;20049;-64
2023/05/22 18:12:00;;;;;;;6.95;4.13;;;;;;;26.24;41.52;99950.59;10367949;28;20136;-65
2023/05/22 18:17:03;;;;;;;6.70;4.43;;;;;;;26.27;42.42;99956.34;10372981;28;20048;-64
2023/05/22 18:22:04;;;;;;;7.22;5.43;;;;;;;26.45;41.76;99960.31;10378352;28;20069;-67
2023/05/22 18:27:06;;;;;;;9.82;6.32;;;;;;;26.53;42.19;99956.09;10379280;28;20048;-63
2023/05/22 18:32:09;;;;;;;8.05;6.07;;;;;;;26.58;42.09;99950.56;10370471;28;20083;-64
2023/05/22 18:37:12;;;;;;;6.50;4.93;;;;;;;26.56;42.06;99940.88;10379201;28;20532;-66
2023/05/22 18:42:14;;;;;;;6.57;5.05;;;;;;;26.51;42.09;99939.03;10371824;28;20042;-64
2023/05/22 18:47:16;;;;;;;5.93;4.00;;;;;;;25.96;42.85;99938.47;10372979;28;20041;-67
2023/05/22 18:52:17;;;;;;;4.68;2.90;;;;;;;25.80;42.37;99941.31;10374782;28;20058;-70
2023/05/22 18:57:19;;;;;;;3.10;2.00;;;;;;;25.35;41.72;99928.69;10381674;28;20057;-64
2023/05/22 19:02:20;;;;;;;2.47;2.15;;;;;;;24.87;41.65;99930.00;10376533;28;20045;-65
2023/05/22 19:07:22;;;;;;;4.63;2.63;;;;;;;24.52;42.44;99918.03;10377361;28;20397;-64
2023/05/22 19:12:24;;;;;;;2.78;2.40;;;;;;;24.17;42.91;99920.81;10372899;28;20041;-65
2023/05/22 19:17:25;;;;;;;4.55;2.63;;;;;;;23.75;43.92;99914.50;10378030;28;20054;-66
2023/05/22 19:22:27;;;;;;;6.20;3.40;;;;;;;23.64;44.46;99927.41;10374655;28;20045;-65
2023/05/22 19:27:28;;;;;;;5.38;2.67;;;;;;;23.59;44.31;99932.06;10359078;28;20638;-65
2023/05/22 19:32:30;;;;;;;4.95;3.20;;;;;;;23.55;44.55;99929.03;10357744;28;20049;-65
2023/05/22 19:37:31;;;;;;;7.55;3.22;;;;;;;23.44;44.88;99933.72;10379255;28;20051;-63
2023/05/22 19:42:33;;;;;;;5.65;3.10;;;;;;;23.37;44.81;99938.63;10359552;28;20049;-62
2023/05/22 19:47:35;;;;;;;4.70;3.03;;;;;;;23.19;45.31;99945.44;10376317;28;20050;-63
2023/05/22 19:52:36;;;;;;;6.55;3.08;;;;;;;23.04;45.81;99959.09;10386714;28;20125;-62
2023/05/22 19:57:38;;;;;;;5.85;4.13;;;;;;;22.86;45.78;99950.22;10382782;28;20042;-63
2023/05/22 20:02:39;;;;;;;6.40;3.97;;;;;;;22.89;45.88;99951.59;10382876;28;20125;-63
2023/05/22 20:07:41;;;;;;;8.77;5.60;;;;;;;22.80;46.29;99958.69;10368553;28;20090;-64
2023/05/22 20:12:43;;;;;;;9.60;7.00;;;;;;;22.89;46.83;99960.66;10380397;28;20504;-63
2023/05/22 20:17:50;;;;;;;13.40;7.68;;;;;;;22.67;48.72;99969.03;10377689;28;20050;-63
2023/05/22 20:22:52;;;;;;;11.15;8.63;;;;;;;22.56;49.97;99965.41;10377992;28;20505;-62
2023/05/22 20:27:54;;;;;;;16.98;11.30;;;;;;;22.59;50.86;99969.56;10380739;28;20085;-63
2023/05/22 20:32:55;;;;;;;24.35;14.73;;;;;;;22.48;52.86;99979.59;10383440;28;20056;-63
2023/05/22 20:38:01;;;;;;;24.35;13.68;;;;;;;22.29;54.12;99975.63;10377178;28;20103;-64
2023/05/22 20:43:03;;;;;;;26.35;13.77;;;;;;;22.18;55.23;99980.19;10385688;28;20056;-62
2023/05/22 20:48:05;;;;;;;17.90;12.43;;;;;;;22.13;55.15;99972.75;10387423;28;20040;-63
2023/05/22 20:53:07;;;;;;;18.42;12.68;;;;;;;22.20;55.01;99979.94;10386714;28;20042;-64
2023/05/22 20:58:08;;;;;;;23.05;14.82;;;;;;;22.25;55.19;99991.75;10377896;28;20037;-62
2023/05/22 21:03:10;;;;;;;28.17;17.48;;;;;;;22.30;55.85;99983.59;10383158;28;20456;-63
2023/05/22 21:08:12;;;;;;;34.28;20.63;;;;;;;22.26;56.38;99989.88;10380007;28;20554;-63
2023/05/22 21:13:13;;;;;;;47.15;26.63;;;;;;;22.29;56.91;99976.44;10384439;28;20046;-64
2023/05/22 21:18:15;;;;;;;51.80;27.95;;;;;;;22.36;56.92;99992.69;10385376;28;20096;-63
2023/05/22 21:23:16;;;;;;;57.60;30.45;;;;;;;22.48;56.98;99978.78;10376305;28;20057;-64
2023/05/22 21:28:17;;;;;;;57.75;31.27;;;;;;;22.50;57.46;99987.56;10380280;28;20128;-63
2023/05/22 21:33:19;;;;;;;60.28;33.45;;;;;;;22.44;58.27;99988.63;10385055;28;20042;-62
2023/05/22 21:38:20;;;;;;;59.53;34.60;;;;;;;22.43;58.55;99992.44;10385200;28;20052;-63
2023/05/22 21:43:22;;;;;;;63.88;35.78;;;;;;;22.05;60.24;99992.38;10384265;28;20055;-64
2023/05/22 21:48:23;;;;;;;64.13;36.85;;;;;;;22.13;60.44;99996.56;10391839;28;20049;-62
2023/05/22 21:53:25;;;;;;;66.28;37.72;;;;;;;21.94;61.09;100007.91;10381586;28;20066;-63
2023/05/22 21:58:26;;;;;;;61.28;37.17;;;;;;;21.89;61.72;100007.03;10380786;28;20053;-63
2023/05/22 22:03:27;;;;;;;64.60;37.80;;;;;;;21.91;61.51;100015.81;10380993;28;20042;-64
2023/05/22 22:08:29;;;;;;;66.82;40.45;;;;;;;21.85;61.51;100019.59;10370593;28;20493;-64
2023/05/22 22:13:31;;;;;;;60.40;36.75;;;;;;;21.85;61.54;100019.59;10378695;28;20098;-63
2023/05/22 22:18:32;;;;;;;60.85;35.00;;;;;;;21.80;61.57;100020.38;10382606;28;20497;-64
2023/05/22 22:23:34;;;;;;;57.75;35.90;;;;;;;21.87;60.97;100025.63;10373538;28;21348;-64
2023/05/22 22:28:36;;;;;;;52.67;32.05;;;;;;;21.90;60.85;100025.09;10376286;28;20072;-65
2023/05/22 22:33:38;;;;;;;51.95;32.90;;;;;;;21.86;61.19;100022.06;10380136;28;20057;-64
2023/05/22 22:38:39;;;;;;;55.10;32.15;;;;;;;21.64;61.90;100033.03;10380571;28;20053;-65
2023/05/22 22:43:41;;;;;;;59.63;35.30;;;;;;;21.61;62.41;100038.22;10381379;28;20042;-64
2023/05/22 22:48:43;;;;;;;54.78;33.05;;;;;;;21.56;62.31;100050.78;10379488;28;20038;-63
2023/05/22 22:53:44;;;;;;;58.40;33.10;;;;;;;21.58;62.06;100056.81;10380015;28;20042;-64
2023/05/22 22:58:46;;;;;;;52.03;32.42;;;;;;;21.46;62.55;100063.47;10375913;28;20137;-64
2023/05/22 23:03:47;;;;;;;56.05;32.47;;;;;;;21.40;63.21;100057.09;10372189;28;20065;-64
2023/05/22 23:08:49;;;;;;;54.08;31.98;;;;;;;21.36;63.21;100072.34;10376314;28;20177;-64
2023/05/22 23:13:50;;;;;;;56.00;31.88;;;;;;;21.35;62.75;100070.72;10381598;28;20060;-63